Huvudsida
METAR-TAF:

METAR-TAF

Flygplatser :

Fascene Nosy Be Airport

Nosy Be, Madagaskar

latitud: 13-19S, longitud: 048-19E, höjd: 10 m

Aktuellt väderrapport

Denna rapport gjordes för 7 timmar och 49 minuter sedan, klockan 15:00 UTC
Stilla vind
Temperatur 29°C
Tryck 1009 hPa
Sikt 10 km eller mer
Spridda moln på en höjd av 2000 ft
Spridda moln på en höjd av 23000 ft

METAR: FMNN 191500Z 00000KT 9999 SCT020 SCT230 29/// Q1009

Tid: 01:49 (22:49 UTC)

Väderprognos

Denna rapport gjordes för 5 timmar och 49 minuter sedan, klockan 17:00 UTC
Prognos gäller från 19 kl. 18 UTC till 20 kl. 18 UTC
Vind 6 kt från väst
Sikt: 9000 m
Spridda moln på en höjd av 2000 ft
Sannolikhet 40% :
Temporärt
från 19 kl. 18 UTC till 20 kl. 18 UTC
Sikt: 4500 m
regn

TAF: FMNN 191700Z 1918/2018 28006KT 9000 SCT020 PROB40 TEMPO 1918/2018 4500 RA

Aktuella väderrapporter och prognoser från 4000 flygplatser (METAR- och TAF-rapporter).

De tillgängliga stationerna syns som gula och röda prickar på kartan.

För musen över prickarna för att se namnen på stationerna.

Klicka sedan för att få väderrapporter och prognoser.

För att ändra kartan: Klicka på de gröna knapparna med ett svart kors på för att zooma in; den gröna knappen med ett streck på för att zooma ut; eller på de gröna pilarna för angränsande kartor.


METAR-TAF: